sensor_id;sensor_type;location;lat;lon;timestamp;pressure;altitude;pressure_sealevel;temperature;humidity
16190;BME280;41754;51.498;7.540;2023-04-07T00:01:21;100150.25;;;8.53;78.54
16190;BME280;41754;51.498;7.540;2023-04-07T00:03:49;100149.63;;;8.42;79.02
16190;BME280;41754;51.498;7.540;2023-04-07T00:06:17;100146.94;;;8.56;77.86
16190;BME280;41754;51.498;7.540;2023-04-07T00:08:46;100143.72;;;8.67;77.63
16190;BME280;41754;51.498;7.540;2023-04-07T00:11:14;100141.19;;;8.38;78.83
16190;BME280;41754;51.498;7.540;2023-04-07T00:13:42;100140.41;;;8.52;78.51
16190;BME280;41754;51.498;7.540;2023-04-07T00:16:10;100143.25;;;8.46;78.48
16190;BME280;41754;51.498;7.540;2023-04-07T00:18:38;100148.75;;;8.28;79.08
16190;BME280;41754;51.498;7.540;2023-04-07T00:21:05;100148.53;;;8.43;79.55
16190;BME280;41754;51.498;7.540;2023-04-07T00:23:33;100143.38;;;8.55;77.77
16190;BME280;41754;51.498;7.540;2023-04-07T00:26:02;100147.13;;;8.59;77.87
16190;BME280;41754;51.498;7.540;2023-04-07T00:28:30;100138.19;;;8.21;78.82
16190;BME280;41754;51.498;7.540;2023-04-07T00:30:58;100145.53;;;8.39;80.00
16190;BME280;41754;51.498;7.540;2023-04-07T00:33:26;100129.63;;;8.88;78.63
16190;BME280;41754;51.498;7.540;2023-04-07T00:35:54;100131.19;;;8.61;78.75
16190;BME280;41754;51.498;7.540;2023-04-07T00:38:23;100143.41;;;8.36;79.52
16190;BME280;41754;51.498;7.540;2023-04-07T00:40:56;100135.78;;;8.33;79.19
16190;BME280;41754;51.498;7.540;2023-04-07T00:43:25;100131.50;;;8.27;79.62
16190;BME280;41754;51.498;7.540;2023-04-07T00:45:53;100130.31;;;8.33;80.10
16190;BME280;41754;51.498;7.540;2023-04-07T00:48:21;100136.28;;;8.54;79.44
16190;BME280;41754;51.498;7.540;2023-04-07T00:50:50;100131.66;;;8.50;78.54
16190;BME280;41754;51.498;7.540;2023-04-07T00:53:18;100131.16;;;8.47;79.29
16190;BME280;41754;51.498;7.540;2023-04-07T00:55:47;100129.69;;;8.36;79.51
16190;BME280;41754;51.498;7.540;2023-04-07T00:58:15;100132.53;;;8.31;80.80
16190;BME280;41754;51.498;7.540;2023-04-07T01:00:48;100132.47;;;8.50;80.14
16190;BME280;41754;51.498;7.540;2023-04-07T01:03:23;100121.03;;;8.62;78.85
16190;BME280;41754;51.498;7.540;2023-04-07T01:05:54;100116.47;;;8.57;79.26
16190;BME280;41754;51.498;7.540;2023-04-07T01:08:32;100117.34;;;8.85;77.46
16190;BME280;41754;51.498;7.540;2023-04-07T01:11:07;100116.31;;;8.81;77.96
16190;BME280;41754;51.498;7.540;2023-04-07T01:13:42;100118.41;;;8.70;78.12
16190;BME280;41754;51.498;7.540;2023-04-07T01:16:38;100117.78;;;8.73;78.42
16190;BME280;41754;51.498;7.540;2023-04-07T01:19:15;100113.59;;;8.81;78.05
16190;BME280;41754;51.498;7.540;2023-04-07T01:21:55;100113.59;;;8.81;77.95
16190;BME280;41754;51.498;7.540;2023-04-07T01:24:41;100122.81;;;8.53;79.87
16190;BME280;41754;51.498;7.540;2023-04-07T01:27:18;100112.00;;;8.75;79.00
16190;BME280;41754;51.498;7.540;2023-04-07T01:29:51;100108.09;;;8.95;78.63
16190;BME280;41754;51.498;7.540;2023-04-07T01:32:20;100111.59;;;8.68;79.05
16190;BME280;41754;51.498;7.540;2023-04-07T01:34:51;100109.59;;;8.87;78.95
16190;BME280;41754;51.498;7.540;2023-04-07T01:37:20;100103.75;;;8.61;78.56
16190;BME280;41754;51.498;7.540;2023-04-07T01:39:50;100111.50;;;8.73;78.69
16190;BME280;41754;51.498;7.540;2023-04-07T01:42:19;100102.00;;;8.84;78.35
16190;BME280;41754;51.498;7.540;2023-04-07T01:44:48;100104.84;;;9.07;77.32
16190;BME280;41754;51.498;7.540;2023-04-07T01:47:19;100104.66;;;9.17;76.86
16190;BME280;41754;51.498;7.540;2023-04-07T01:49:48;100108.06;;;9.36;75.60
16190;BME280;41754;51.498;7.540;2023-04-07T01:52:17;100105.44;;;8.90;76.65
16190;BME280;41754;51.498;7.540;2023-04-07T01:54:45;100103.03;;;9.16;77.01
16190;BME280;41754;51.498;7.540;2023-04-07T01:57:13;100102.81;;;8.85;77.90
16190;BME280;41754;51.498;7.540;2023-04-07T01:59:42;100101.50;;;8.96;77.08
16190;BME280;41754;51.498;7.540;2023-04-07T02:02:10;100103.03;;;9.16;76.46
16190;BME280;41754;51.498;7.540;2023-04-07T02:04:47;100107.47;;;8.84;77.33
16190;BME280;41754;51.498;7.540;2023-04-07T02:07:18;100096.81;;;8.96;78.06
16190;BME280;41754;51.498;7.540;2023-04-07T02:09:50;100092.84;;;9.02;77.21
16190;BME280;41754;51.498;7.540;2023-04-07T02:12:20;100101.38;;;8.87;77.75
16190;BME280;41754;51.498;7.540;2023-04-07T02:15:02;100096.63;;;8.79;78.61
16190;BME280;41754;51.498;7.540;2023-04-07T02:17:31;100102.91;;;8.80;79.06
16190;BME280;41754;51.498;7.540;2023-04-07T02:20:04;100098.91;;;8.72;78.34
16190;BME280;41754;51.498;7.540;2023-04-07T02:22:33;100092.66;;;8.85;78.02
16190;BME280;41754;51.498;7.540;2023-04-07T02:25:01;100098.44;;;8.97;76.92
16190;BME280;41754;51.498;7.540;2023-04-07T02:27:29;100097.66;;;8.51;78.16
16190;BME280;41754;51.498;7.540;2023-04-07T02:29:57;100098.41;;;8.70;78.69
16190;BME280;41754;51.498;7.540;2023-04-07T02:32:25;100103.91;;;8.37;78.40
16190;BME280;41754;51.498;7.540;2023-04-07T02:34:53;100097.31;;;8.98;78.24
16190;BME280;41754;51.498;7.540;2023-04-07T02:37:22;100097.69;;;8.78;77.39
16190;BME280;41754;51.498;7.540;2023-04-07T02:39:50;100103.91;;;8.37;80.72
16190;BME280;41754;51.498;7.540;2023-04-07T02:42:19;100105.84;;;8.83;79.19
16190;BME280;41754;51.498;7.540;2023-04-07T02:44:47;100096.66;;;8.74;78.85
16190;BME280;41754;51.498;7.540;2023-04-07T02:47:15;100099.66;;;9.05;77.87
16190;BME280;41754;51.498;7.540;2023-04-07T02:49:43;100104.03;;;8.92;79.46
16190;BME280;41754;51.498;7.540;2023-04-07T02:52:11;100096.69;;;9.01;78.21
16190;BME280;41754;51.498;7.540;2023-04-07T02:54:40;100104.34;;;9.04;78.22
16190;BME280;41754;51.498;7.540;2023-04-07T02:57:10;100097.94;;;8.95;77.38
16190;BME280;41754;51.498;7.540;2023-04-07T02:59:39;100097.44;;;8.93;78.35
16190;BME280;41754;51.498;7.540;2023-04-07T03:02:09;100093.44;;;8.86;78.38
16190;BME280;41754;51.498;7.540;2023-04-07T03:04:37;100097.94;;;9.09;78.20
16190;BME280;41754;51.498;7.540;2023-04-07T03:07:05;100094.38;;;9.09;77.66
16190;BME280;41754;51.498;7.540;2023-04-07T03:09:32;100094.88;;;9.11;77.54
16190;BME280;41754;51.498;7.540;2023-04-07T03:12:02;100096.63;;;9.07;78.24
16190;BME280;41754;51.498;7.540;2023-04-07T03:14:33;100095.88;;;9.15;77.10
16190;BME280;41754;51.498;7.540;2023-04-07T03:17:02;100098.94;;;9.13;77.10
16190;BME280;41754;51.498;7.540;2023-04-07T03:19:31;100095.88;;;9.01;77.15
16190;BME280;41754;51.498;7.540;2023-04-07T03:21:58;100094.66;;;9.21;77.49
16190;BME280;41754;51.498;7.540;2023-04-07T03:24:32;100097.25;;;9.03;78.28
16190;BME280;41754;51.498;7.540;2023-04-07T03:27:03;100099.75;;;9.14;78.38
16190;BME280;41754;51.498;7.540;2023-04-07T03:29:42;100096.19;;;9.27;77.72
16190;BME280;41754;51.498;7.540;2023-04-07T03:32:12;100101.69;;;8.99;78.25
16190;BME280;41754;51.498;7.540;2023-04-07T03:34:40;100100.13;;;8.66;79.93
16190;BME280;41754;51.498;7.540;2023-04-07T03:37:08;100095.84;;;8.73;79.80
16190;BME280;41754;51.498;7.540;2023-04-07T03:39:40;100097.47;;;8.61;80.22
16190;BME280;41754;51.498;7.540;2023-04-07T03:42:22;100098.94;;;8.99;78.90
16190;BME280;41754;51.498;7.540;2023-04-07T03:44:55;100091.22;;;9.29;78.30
16190;BME280;41754;51.498;7.540;2023-04-07T03:47:24;100099.34;;;9.07;78.04
16190;BME280;41754;51.498;7.540;2023-04-07T03:49:56;100095.28;;;9.18;77.36
16190;BME280;41754;51.498;7.540;2023-04-07T03:52:25;100103.44;;;8.95;78.36
16190;BME280;41754;51.498;7.540;2023-04-07T03:55:00;100107.28;;;8.94;78.75
16190;BME280;41754;51.498;7.540;2023-04-07T03:57:32;100095.69;;;8.84;78.07
16190;BME280;41754;51.498;7.540;2023-04-07T04:00:01;100108.63;;;8.51;81.60
16190;BME280;41754;51.498;7.540;2023-04-07T04:02:41;100111.59;;;8.68;81.42
16190;BME280;41754;51.498;7.540;2023-04-07T04:05:14;100111.03;;;8.98;80.34
16190;BME280;41754;51.498;7.540;2023-04-07T04:07:42;100095.47;;;9.21;78.59
16190;BME280;41754;51.498;7.540;2023-04-07T04:10:10;100098.56;;;9.06;78.84
16190;BME280;41754;51.498;7.540;2023-04-07T04:12:43;100104.84;;;8.79;79.58
16190;BME280;41754;51.498;7.540;2023-04-07T04:15:12;100108.91;;;8.95;79.66
16190;BME280;41754;51.498;7.540;2023-04-07T04:17:40;100107.91;;;9.19;78.46
16190;BME280;41754;51.498;7.540;2023-04-07T04:20:09;100110.34;;;9.20;77.75
16190;BME280;41754;51.498;7.540;2023-04-07T04:22:46;100110.34;;;9.07;79.01
16190;BME280;41754;51.498;7.540;2023-04-07T04:25:15;100117.34;;;8.85;80.27
16190;BME280;41754;51.498;7.540;2023-04-07T04:27:48;100117.16;;;8.63;82.13
16190;BME280;41754;51.498;7.540;2023-04-07T04:30:20;100117.78;;;8.60;82.32
16190;BME280;41754;51.498;7.540;2023-04-07T04:32:51;100113.16;;;9.01;80.16
16190;BME280;41754;51.498;7.540;2023-04-07T04:35:26;100114.47;;;8.90;80.71
16190;BME280;41754;51.498;7.540;2023-04-07T04:38:09;100119.38;;;9.07;81.13
16190;BME280;41754;51.498;7.540;2023-04-07T04:40:42;100123.75;;;9.08;80.71
16190;BME280;41754;51.498;7.540;2023-04-07T04:43:12;100126.34;;;8.72;81.80
16190;BME280;41754;51.498;7.540;2023-04-07T04:45:40;100128.94;;;9.10;80.41
16190;BME280;41754;51.498;7.540;2023-04-07T04:48:11;100120.81;;;9.04;80.78
16190;BME280;41754;51.498;7.540;2023-04-07T04:50:40;100126.59;;;9.17;80.29
16190;BME280;41754;51.498;7.540;2023-04-07T04:53:11;100125.56;;;9.13;80.23
16190;BME280;41754;51.498;7.540;2023-04-07T04:55:46;100122.94;;;9.08;80.99
16190;BME280;41754;51.498;7.540;2023-04-07T04:58:23;100128.13;;;9.23;80.41
16190;BME280;41754;51.498;7.540;2023-04-07T05:00:54;100129.44;;;9.12;80.11
16190;BME280;41754;51.498;7.540;2023-04-07T05:03:28;100128.63;;;8.97;80.95
16190;BME280;41754;51.498;7.540;2023-04-07T05:06:01;100131.06;;;9.13;80.79
16190;BME280;41754;51.498;7.540;2023-04-07T05:08:30;100128.81;;;9.01;81.60
16190;BME280;41754;51.498;7.540;2023-04-07T05:10:59;100134.94;;;8.98;81.71
16190;BME280;41754;51.498;7.540;2023-04-07T05:13:32;100136.56;;;9.13;81.21
16190;BME280;41754;51.498;7.540;2023-04-07T05:16:02;100139.59;;;9.25;80.71
16190;BME280;41754;51.498;7.540;2023-04-07T05:18:30;100138.59;;;9.21;80.22
16190;BME280;41754;51.498;7.540;2023-04-07T05:20:59;100145.81;;;9.17;81.39
16190;BME280;41754;51.498;7.540;2023-04-07T05:23:28;100145.50;;;8.91;81.76
16190;BME280;41754;51.498;7.540;2023-04-07T05:25:55;100149.34;;;8.90;82.70
16190;BME280;41754;51.498;7.540;2023-04-07T05:28:24;100152.13;;;9.03;82.29
16190;BME280;41754;51.498;7.540;2023-04-07T05:30:55;100150.88;;;9.23;81.58
16190;BME280;41754;51.498;7.540;2023-04-07T05:33:28;100156.06;;;9.11;81.60
16190;BME280;41754;51.498;7.540;2023-04-07T05:35:56;100153.84;;;9.27;81.34
16190;BME280;41754;51.498;7.540;2023-04-07T05:38:24;100158.50;;;9.54;79.92
16190;BME280;41754;51.498;7.540;2023-04-07T05:40:57;100156.59;;;9.54;79.75
16190;BME280;41754;51.498;7.540;2023-04-07T05:43:30;100166.03;;;9.48;79.45
16190;BME280;41754;51.498;7.540;2023-04-07T05:45:59;100164.59;;;9.51;79.18
16190;BME280;41754;51.498;7.540;2023-04-07T05:48:27;100165.63;;;9.55;79.23
16190;BME280;41754;51.498;7.540;2023-04-07T05:50:55;100160.44;;;9.40;79.33
16190;BME280;41754;51.498;7.540;2023-04-07T05:53:23;100164.91;;;9.35;80.13
16190;BME280;41754;51.498;7.540;2023-04-07T05:55:51;100166.50;;;9.78;79.27
16190;BME280;41754;51.498;7.540;2023-04-07T05:58:37;100165.13;;;9.39;79.54
16190;BME280;41754;51.498;7.540;2023-04-07T06:01:08;100175.81;;;9.54;79.98
16190;BME280;41754;51.498;7.540;2023-04-07T06:03:36;100172.94;;;9.59;79.46
16190;BME280;41754;51.498;7.540;2023-04-07T06:06:14;100174.34;;;9.71;78.77
16190;BME280;41754;51.498;7.540;2023-04-07T06:08:43;100177.19;;;9.79;78.41
16190;BME280;41754;51.498;7.540;2023-04-07T06:11:11;100179.47;;;9.22;79.81
16190;BME280;41754;51.498;7.540;2023-04-07T06:13:39;100179.03;;;9.15;80.56
16190;BME280;41754;51.498;7.540;2023-04-07T06:16:09;100187.00;;;9.30;81.14
16190;BME280;41754;51.498;7.540;2023-04-07T06:18:37;100189.63;;;9.49;80.62
16190;BME280;41754;51.498;7.540;2023-04-07T06:21:05;100191.88;;;9.33;80.83
16190;BME280;41754;51.498;7.540;2023-04-07T06:23:33;100196.13;;;9.67;80.32
16190;BME280;41754;51.498;7.540;2023-04-07T06:26:05;100208.34;;;9.20;82.34
16190;BME280;41754;51.498;7.540;2023-04-07T06:28:32;100197.16;;;9.57;79.80
16190;BME280;41754;51.498;7.540;2023-04-07T06:31:00;100196.94;;;9.13;81.24
16190;BME280;41754;51.498;7.540;2023-04-07T06:33:30;100208.34;;;9.20;81.92
16190;BME280;41754;51.498;7.540;2023-04-07T06:35:57;100201.34;;;9.41;81.16
16190;BME280;41754;51.498;7.540;2023-04-07T06:38:25;100206.72;;;9.46;80.28
16190;BME280;41754;51.498;7.540;2023-04-07T06:40:53;100204.28;;;9.58;79.60
16190;BME280;41754;51.498;7.540;2023-04-07T06:43:21;100208.16;;;9.44;80.21
16190;BME280;41754;51.498;7.540;2023-04-07T06:45:54;100211.53;;;9.41;80.68
16190;BME280;41754;51.498;7.540;2023-04-07T06:48:22;100212.63;;;9.53;80.44
16190;BME280;41754;51.498;7.540;2023-04-07T06:50:51;100207.66;;;9.28;80.53
16190;BME280;41754;51.498;7.540;2023-04-07T06:53:19;100216.78;;;9.64;80.79
16190;BME280;41754;51.498;7.540;2023-04-07T06:55:47;100223.47;;;9.86;78.96
16190;BME280;41754;51.498;7.540;2023-04-07T06:58:15;100218.31;;;9.71;77.52
16190;BME280;41754;51.498;7.540;2023-04-07T07:00:42;100217.72;;;9.46;79.22
16190;BME280;41754;51.498;7.540;2023-04-07T07:03:10;100220.84;;;9.26;79.92
16190;BME280;41754;51.498;7.540;2023-04-07T07:05:38;100219.53;;;9.78;79.17
16190;BME280;41754;51.498;7.540;2023-04-07T07:08:07;100217.50;;;9.70;77.32
16190;BME280;41754;51.498;7.540;2023-04-07T07:10:35;100223.13;;;9.65;78.80
16190;BME280;41754;51.498;7.540;2023-04-07T07:13:03;100228.69;;;9.74;78.75
16190;BME280;41754;51.498;7.540;2023-04-07T07:15:31;100225.38;;;9.99;77.92
16190;BME280;41754;51.498;7.540;2023-04-07T07:17:59;100224.34;;;10.09;76.64
16190;BME280;41754;51.498;7.540;2023-04-07T07:20:27;100226.59;;;10.07;76.46
16190;BME280;41754;51.498;7.540;2023-04-07T07:22:55;100234.88;;;9.93;77.16
16190;BME280;41754;51.498;7.540;2023-04-07T07:25:25;100238.44;;;9.93;77.58
16190;BME280;41754;51.498;7.540;2023-04-07T07:27:53;100235.75;;;10.30;76.33
16190;BME280;41754;51.498;7.540;2023-04-07T07:30:22;100242.59;;;10.18;76.05
16190;BME280;41754;51.498;7.540;2023-04-07T07:32:51;100244.41;;;10.09;76.11
16190;BME280;41754;51.498;7.540;2023-04-07T07:35:20;100244.72;;;10.21;75.32
16190;BME280;41754;51.498;7.540;2023-04-07T07:37:48;100251.75;;;10.00;76.42
16190;BME280;41754;51.498;7.540;2023-04-07T07:40:17;100245.72;;;10.12;76.18
16190;BME280;41754;51.498;7.540;2023-04-07T07:42:46;100258.38;;;9.99;76.76
16190;BME280;41754;51.498;7.540;2023-04-07T07:45:14;100256.50;;;10.36;75.69
16190;BME280;41754;51.498;7.540;2023-04-07T07:47:45;100259.16;;;10.13;75.59
16190;BME280;41754;51.498;7.540;2023-04-07T07:50:13;100266.00;;;10.16;75.75
16190;BME280;41754;51.498;7.540;2023-04-07T07:52:41;100262.44;;;10.15;76.49
16190;BME280;41754;51.498;7.540;2023-04-07T07:55:09;100263.25;;;10.30;75.59
16190;BME280;41754;51.498;7.540;2023-04-07T07:57:36;100273.00;;;10.36;76.07
16190;BME280;41754;51.498;7.540;2023-04-07T08:00:07;100269.88;;;10.51;74.67
16190;BME280;41754;51.498;7.540;2023-04-07T08:02:40;100265.44;;;10.41;74.88
16190;BME280;41754;51.498;7.540;2023-04-07T08:05:09;100275.19;;;9.84;76.10
16190;BME280;41754;51.498;7.540;2023-04-07T08:07:36;100286.06;;;9.89;77.13
16190;BME280;41754;51.498;7.540;2023-04-07T08:10:05;100281.09;;;9.91;76.99
16190;BME280;41754;51.498;7.540;2023-04-07T08:12:33;100279.78;;;10.02;76.55
16190;BME280;41754;51.498;7.540;2023-04-07T08:15:01;100285.47;;;10.19;75.36
16190;BME280;41754;51.498;7.540;2023-04-07T08:17:30;100282.66;;;10.69;73.56
16190;BME280;41754;51.498;7.540;2023-04-07T08:19:59;100292.38;;;10.03;76.00
16190;BME280;41754;51.498;7.540;2023-04-07T08:22:27;100295.13;;;10.03;77.25
16190;BME280;41754;51.498;7.540;2023-04-07T08:24:55;100296.84;;;10.27;76.50
16190;BME280;41754;51.498;7.540;2023-04-07T08:27:23;100293.28;;;10.26;75.59
16190;BME280;41754;51.498;7.540;2023-04-07T08:29:58;100291.88;;;10.65;74.63
16190;BME280;41754;51.498;7.540;2023-04-07T08:32:34;100300.63;;;10.31;74.70
16190;BME280;41754;51.498;7.540;2023-04-07T08:35:03;100300.66;;;10.53;74.39
16190;BME280;41754;51.498;7.540;2023-04-07T08:37:31;100296.38;;;10.47;74.01
16190;BME280;41754;51.498;7.540;2023-04-07T08:40:01;100303.34;;;10.44;74.67
16190;BME280;41754;51.498;7.540;2023-04-07T08:42:31;100302.13;;;10.73;73.54
16190;BME280;41754;51.498;7.540;2023-04-07T08:45:01;100310.56;;;10.54;73.74
16190;BME280;41754;51.498;7.540;2023-04-07T08:47:30;100310.38;;;10.37;74.54
16190;BME280;41754;51.498;7.540;2023-04-07T08:50:02;100312.28;;;10.50;74.48
16190;BME280;41754;51.498;7.540;2023-04-07T08:52:33;100316.66;;;10.51;74.07
16190;BME280;41754;51.498;7.540;2023-04-07T08:55:03;100315.16;;;10.45;74.29
16190;BME280;41754;51.498;7.540;2023-04-07T08:57:33;100315.78;;;10.42;75.22
16190;BME280;41754;51.498;7.540;2023-04-07T09:00:01;100322.81;;;10.07;75.53
16190;BME280;41754;51.498;7.540;2023-04-07T09:02:32;100326.09;;;9.95;76.17
16190;BME280;41754;51.498;7.540;2023-04-07T09:05:04;100328.09;;;10.17;76.63
16190;BME280;41754;51.498;7.540;2023-04-07T09:07:33;100327.38;;;10.39;76.22
16190;BME280;41754;51.498;7.540;2023-04-07T09:10:02;100324.75;;;10.34;75.14
16190;BME280;41754;51.498;7.540;2023-04-07T09:12:30;100331.88;;;10.35;75.95
16190;BME280;41754;51.498;7.540;2023-04-07T09:14:59;100326.47;;;10.43;75.11
16190;BME280;41754;51.498;7.540;2023-04-07T09:17:27;100338.91;;;10.77;74.19
16190;BME280;41754;51.498;7.540;2023-04-07T09:19:56;100334.91;;;10.47;75.16
16190;BME280;41754;51.498;7.540;2023-04-07T09:22:35;100341.41;;;10.65;74.71
16190;BME280;41754;51.498;7.540;2023-04-07T09:25:14;100343.59;;;10.27;75.03
16190;BME280;41754;51.498;7.540;2023-04-07T09:27:53;100338.66;;;10.87;73.76
16190;BME280;41754;51.498;7.540;2023-04-07T09:30:22;100343.63;;;10.63;72.65
16190;BME280;41754;51.498;7.540;2023-04-07T09:32:50;100346.69;;;10.61;74.10
16190;BME280;41754;51.498;7.540;2023-04-07T09:35:18;100338.94;;;10.63;73.60
16190;BME280;41754;51.498;7.540;2023-04-07T09:38:03;100346.16;;;10.73;74.04
16190;BME280;41754;51.498;7.540;2023-04-07T09:40:31;100341.66;;;10.77;73.21
16190;BME280;41754;51.498;7.540;2023-04-07T09:43:01;100341.13;;;10.39;74.71
16190;BME280;41754;51.498;7.540;2023-04-07T09:45:30;100340.13;;;10.35;74.51
16190;BME280;41754;51.498;7.540;2023-04-07T09:48:05;100348.16;;;10.17;75.54
16190;BME280;41754;51.498;7.540;2023-04-07T09:50:35;100347.31;;;10.58;74.15
16190;BME280;41754;51.498;7.540;2023-04-07T09:53:04;100350.75;;;10.64;74.29
16190;BME280;41754;51.498;7.540;2023-04-07T09:55:32;100347.84;;;10.82;72.95
16190;BME280;41754;51.498;7.540;2023-04-07T09:58:03;100353.03;;;10.84;73.38
16190;BME280;41754;51.498;7.540;2023-04-07T10:00:32;100351.09;;;10.85;73.29
16190;BME280;41754;51.498;7.540;2023-04-07T10:03:00;100357.91;;;10.51;74.31
16190;BME280;41754;51.498;7.540;2023-04-07T10:05:30;100360.56;;;10.92;73.73
16190;BME280;41754;51.498;7.540;2023-04-07T10:07:59;100362.78;;;10.68;74.62
16190;BME280;41754;51.498;7.540;2023-04-07T10:10:29;100358.16;;;10.41;74.72
16190;BME280;41754;51.498;7.540;2023-04-07T10:12:58;100368.91;;;10.51;74.57
16190;BME280;41754;51.498;7.540;2023-04-07T10:15:26;100369.94;;;10.55;74.12
16190;BME280;41754;51.498;7.540;2023-04-07T10:17:54;100363.38;;;10.29;74.74
16190;BME280;41754;51.498;7.540;2023-04-07T10:20:23;100370.56;;;10.38;74.50
16190;BME280;41754;51.498;7.540;2023-04-07T10:22:52;100366.50;;;10.36;73.79
16190;BME280;41754;51.498;7.540;2023-04-07T10:25:24;100369.44;;;10.39;73.84
16190;BME280;41754;51.498;7.540;2023-04-07T10:27:57;100367.72;;;10.43;73.98
16190;BME280;41754;51.498;7.540;2023-04-07T10:30:31;100369.53;;;10.48;73.98
16190;BME280;41754;51.498;7.540;2023-04-07T10:32:59;100373.00;;;10.12;74.67
16190;BME280;41754;51.498;7.540;2023-04-07T10:35:27;100378.34;;;10.22;74.65
16190;BME280;41754;51.498;7.540;2023-04-07T10:38:09;100381.34;;;10.48;75.12
16190;BME280;41754;51.498;7.540;2023-04-07T10:40:40;100383.63;;;10.33;74.84
16190;BME280;41754;51.498;7.540;2023-04-07T10:43:10;100386.03;;;10.48;74.95
16190;BME280;41754;51.498;7.540;2023-04-07T10:45:56;100381.38;;;10.35;74.08
16190;BME280;41754;51.498;7.540;2023-04-07T10:48:26;100391.56;;;10.48;73.79
16190;BME280;41754;51.498;7.540;2023-04-07T10:51:14;100385.53;;;10.46;74.05
16190;BME280;41754;51.498;7.540;2023-04-07T10:57:13;100392.41;;;10.85;72.00
16190;BME280;41754;51.498;7.540;2023-04-07T11:00:15;100398.22;;;10.83;71.61
16190;BME280;41754;51.498;7.540;2023-04-07T11:02:44;100403.31;;;10.76;73.79
16190;BME280;41754;51.498;7.540;2023-04-07T11:05:20;100400.31;;;10.50;73.87
16190;BME280;41754;51.498;7.540;2023-04-07T11:07:51;100404.41;;;10.52;74.77
16190;BME280;41754;51.498;7.540;2023-04-07T11:10:20;100400.22;;;10.41;74.46
16190;BME280;41754;51.498;7.540;2023-04-07T11:13:03;100408.47;;;10.55;73.98
16190;BME280;41754;51.498;7.540;2023-04-07T11:15:34;100403.97;;;10.59;73.97
16190;BME280;41754;51.498;7.540;2023-04-07T11:18:11;100410.91;;;10.15;74.41
16190;BME280;41754;51.498;7.540;2023-04-07T11:20:46;100412.00;;;10.14;75.20
16190;BME280;41754;51.498;7.540;2023-04-07T11:23:16;100411.31;;;10.50;75.08
16190;BME280;41754;51.498;7.540;2023-04-07T11:25:46;100415.81;;;10.46;74.00
16190;BME280;41754;51.498;7.540;2023-04-07T11:28:14;100411.72;;;10.57;74.43
16190;BME280;41754;51.498;7.540;2023-04-07T11:30:48;100412.13;;;10.37;74.65
16190;BME280;41754;51.498;7.540;2023-04-07T11:33:19;100415.50;;;10.47;75.48
16190;BME280;41754;51.498;7.540;2023-04-07T11:35:52;100425.75;;;10.69;75.02
16190;BME280;41754;51.498;7.540;2023-04-07T11:38:22;100427.56;;;10.88;75.06
16190;BME280;41754;51.498;7.540;2023-04-07T11:40:50;100427.19;;;10.80;74.36
16190;BME280;41754;51.498;7.540;2023-04-07T11:43:19;100422.31;;;11.00;73.18
16190;BME280;41754;51.498;7.540;2023-04-07T11:46:09;100428.84;;;10.68;74.40
16190;BME280;41754;51.498;7.540;2023-04-07T11:48:39;100430.28;;;10.65;74.55
16190;BME280;41754;51.498;7.540;2023-04-07T11:51:15;100430.44;;;10.82;73.88
16190;BME280;41754;51.498;7.540;2023-04-07T11:53:43;100438.50;;;10.79;74.32
16190;BME280;41754;51.498;7.540;2023-04-07T11:56:14;100434.41;;;10.76;74.92
16190;BME280;41754;51.498;7.540;2023-04-07T11:58:47;100437.09;;;10.68;75.42
16190;BME280;41754;51.498;7.540;2023-04-07T12:01:17;100438.81;;;10.77;74.41
16190;BME280;41754;51.498;7.540;2023-04-07T12:03:55;100450.28;;;10.93;73.68
16190;BME280;41754;51.498;7.540;2023-04-07T12:06:26;100447.38;;;11.12;72.65
16190;BME280;41754;51.498;7.540;2023-04-07T12:08:56;100448.22;;;11.35;73.37
16190;BME280;41754;51.498;7.540;2023-04-07T12:11:24;100453.69;;;11.49;72.18
16190;BME280;41754;51.498;7.540;2023-04-07T12:13:52;100452.00;;;11.25;71.36
16190;BME280;41754;51.498;7.540;2023-04-07T12:16:21;100445.47;;;11.35;72.71
16190;BME280;41754;51.498;7.540;2023-04-07T12:18:49;100451.50;;;11.23;72.18
16190;BME280;41754;51.498;7.540;2023-04-07T12:21:18;100462.03;;;11.21;72.58
16190;BME280;41754;51.498;7.540;2023-04-07T12:23:46;100455.13;;;11.10;73.00
16190;BME280;41754;51.498;7.540;2023-04-07T12:26:14;100459.13;;;11.62;71.72
16190;BME280;41754;51.498;7.540;2023-04-07T12:28:42;100460.88;;;11.00;72.33
16190;BME280;41754;51.498;7.540;2023-04-07T12:31:10;100461.81;;;10.95;72.79
16190;BME280;41754;51.498;7.540;2023-04-07T12:33:39;100465.16;;;11.06;72.97
16190;BME280;41754;51.498;7.540;2023-04-07T12:36:07;100468.63;;;10.98;73.23
16190;BME280;41754;51.498;7.540;2023-04-07T12:38:35;100463.28;;;11.37;71.67
16190;BME280;41754;51.498;7.540;2023-04-07T12:41:03;100467.47;;;11.13;72.70
16190;BME280;41754;51.498;7.540;2023-04-07T12:43:31;100471.44;;;11.20;72.79
16190;BME280;41754;51.498;7.540;2023-04-07T12:45:59;100473.56;;;11.23;72.23
16190;BME280;41754;51.498;7.540;2023-04-07T12:48:27;100479.06;;;11.23;72.33
16190;BME280;41754;51.498;7.540;2023-04-07T12:50:56;100470.84;;;11.46;71.50
16190;BME280;41754;51.498;7.540;2023-04-07T12:53:24;100475.13;;;11.52;71.29
16190;BME280;41754;51.498;7.540;2023-04-07T12:55:52;100483.34;;;11.29;72.42
16190;BME280;41754;51.498;7.540;2023-04-07T12:58:20;100481.94;;;11.18;71.62
16190;BME280;41754;51.498;7.540;2023-04-07T13:00:48;100480.13;;;11.36;72.71
16190;BME280;41754;51.498;7.540;2023-04-07T13:03:16;100484.06;;;11.21;71.99
16190;BME280;41754;51.498;7.540;2023-04-07T13:05:44;100478.00;;;11.47;71.06
16190;BME280;41754;51.498;7.540;2023-04-07T13:08:13;100475.06;;;11.65;71.12
16190;BME280;41754;51.498;7.540;2023-04-07T13:10:41;100477.03;;;11.74;70.92
16190;BME280;41754;51.498;7.540;2023-04-07T13:13:09;100480.50;;;11.79;70.00
16190;BME280;41754;51.498;7.540;2023-04-07T13:15:37;100484.06;;;11.21;70.90